createdAt,value
2022-10-07T00:09:43.671Z,12.50
2022-10-07T00:19:45.712Z,12.50
2022-10-07T00:29:49.331Z,12.50
2022-10-07T00:39:51.210Z,12.50
2022-10-07T00:50:00.579Z,12.50
2022-10-07T01:00:04.383Z,12.40
2022-10-07T01:10:09.678Z,12.40
2022-10-07T01:20:21.618Z,12.40
2022-10-07T01:30:24.947Z,12.50
2022-10-07T01:40:33.228Z,12.50
2022-10-07T01:50:37.978Z,12.50
2022-10-07T02:00:46.692Z,12.40
2022-10-07T02:11:06.122Z,12.40
2022-10-07T02:21:09.783Z,12.50
2022-10-07T02:31:16.061Z,12.40
2022-10-07T02:41:25.826Z,12.40
2022-10-07T02:51:35.111Z,12.40
2022-10-07T03:01:41.319Z,12.40
2022-10-07T03:11:44.663Z,12.50
2022-10-07T03:21:46.647Z,12.40
2022-10-07T03:31:49.916Z,12.40
2022-10-07T03:41:51.836Z,12.50
2022-10-07T03:51:55.214Z,12.50
2022-10-07T04:01:57.221Z,12.40
2022-10-07T04:12:00.500Z,12.40
2022-10-07T04:22:08.296Z,12.30
2022-10-07T04:32:12.010Z,12.40
2022-10-07T04:42:13.957Z,12.60
2022-10-07T04:52:17.224Z,12.80
2022-10-07T05:02:19.168Z,13.00
2022-10-07T05:12:22.466Z,13.10
2022-10-07T05:22:24.813Z,13.20
2022-10-07T05:32:28.158Z,13.20
2022-10-07T05:42:30.088Z,13.30
2022-10-07T05:52:33.402Z,13.20
2022-10-07T06:02:35.390Z,13.30
2022-10-07T06:12:39.230Z,13.30
2022-10-07T06:22:41.569Z,13.40
2022-10-07T06:32:44.864Z,13.50
2022-10-07T06:42:46.795Z,13.50
2022-10-07T06:52:50.130Z,13.70
2022-10-07T07:02:52.198Z,13.90
2022-10-07T07:12:55.779Z,14.10
2022-10-07T07:22:57.897Z,14.10
2022-10-07T07:33:01.729Z,14.10
2022-10-07T07:43:03.804Z,14.30
2022-10-07T07:53:07.176Z,14.50
2022-10-07T08:03:09.117Z,14.60
2022-10-07T08:13:12.430Z,14.80
2022-10-07T08:23:35.499Z,14.90
2022-10-07T08:33:40.873Z,15.20
2022-10-07T08:43:46.504Z,15.30
2022-10-07T08:53:53.256Z,15.80
2022-10-07T09:04:02.520Z,16.20
2022-10-07T09:14:11.468Z,16.70
2022-10-07T09:24:20.252Z,17.40
2022-10-07T09:34:25.342Z,17.90
2022-10-07T09:44:28.893Z,17.80
2022-10-07T09:54:34.426Z,17.90
2022-10-07T10:04:38.954Z,19.60
2022-10-07T10:14:48.316Z,20.10
2022-10-07T10:24:50.329Z,19.70
2022-10-07T10:34:58.593Z,20.40
2022-10-07T10:45:14.506Z,20.30
2022-10-07T10:55:57.771Z,19.60
2022-10-07T11:06:03.761Z,19.10
2022-10-07T11:16:11.922Z,19.00
2022-10-07T11:26:21.199Z,18.70
2022-10-07T11:36:37.028Z,18.60
2022-10-07T11:46:41.087Z,18.40
2022-10-07T11:56:49.631Z,18.60
2022-10-07T12:07:29.171Z,18.70
2022-10-07T12:17:32.294Z,18.50
2022-10-07T12:27:34.911Z,18.40
2022-10-07T12:37:46.092Z,18.40
2022-10-07T12:47:52.365Z,18.60
2022-10-07T12:57:56.711Z,18.80
2022-10-07T13:08:44.798Z,18.50
2022-10-07T13:18:58.790Z,18.40
2022-10-07T13:29:01.351Z,18.20
2022-10-07T13:39:21.421Z,18.20
2022-10-07T13:49:26.437Z,18.10
2022-10-07T13:59:30.323Z,18.30
2022-10-07T14:09:45.901Z,18.20
2022-10-07T14:19:54.202Z,18.10
2022-10-07T14:29:56.209Z,18.20
2022-10-07T14:39:59.620Z,18.30
2022-10-07T14:50:01.680Z,18.60
2022-10-07T15:00:14.123Z,18.70
2022-10-07T15:10:17.877Z,19.10
2022-10-07T15:20:21.253Z,18.80
2022-10-07T15:30:23.180Z,18.60
2022-10-07T15:40:26.587Z,18.10
2022-10-07T15:50:28.669Z,17.80
2022-10-07T16:00:31.994Z,17.80
2022-10-07T16:10:36.731Z,17.80
2022-10-07T16:20:40.349Z,17.50
2022-10-07T16:30:44.878Z,17.00
2022-10-07T16:40:53.617Z,16.80
2022-10-07T16:50:55.521Z,16.60
2022-10-07T17:01:01.931Z,16.30
2022-10-07T17:11:23.919Z,16.30
2022-10-07T17:21:30.319Z,16.20
2022-10-07T17:31:32.517Z,16.10
2022-10-07T17:41:37.471Z,16.00
2022-10-07T17:51:39.403Z,16.10
2022-10-07T18:01:43.380Z,16.00
2022-10-07T18:11:46.121Z,15.90
2022-10-07T18:21:49.609Z,15.90
2022-10-07T18:31:51.706Z,15.90
2022-10-07T18:41:55.860Z,15.50
2022-10-07T18:51:57.953Z,15.00
2022-10-07T19:02:10.934Z,14.70
2022-10-07T19:12:12.961Z,14.60
2022-10-07T19:22:16.238Z,14.40
2022-10-07T19:32:19.404Z,14.30
2022-10-07T19:42:35.049Z,14.20
2022-10-07T19:52:36.940Z,14.10
2022-10-07T20:02:40.237Z,14.00
2022-10-07T20:12:42.187Z,13.80
2022-10-07T20:22:49.281Z,13.60
2022-10-07T20:32:51.427Z,13.40
2022-10-07T20:42:54.784Z,13.20
2022-10-07T20:52:56.765Z,13.10
2022-10-07T21:03:00.326Z,13.00
2022-10-07T21:13:02.275Z,12.90
2022-10-07T21:23:05.774Z,12.90
2022-10-07T21:33:08.022Z,12.80
2022-10-07T21:43:11.327Z,12.80
2022-10-07T21:53:13.280Z,12.70
2022-10-07T22:03:16.595Z,12.70
2022-10-07T22:13:18.484Z,12.60
2022-10-07T22:23:21.799Z,12.50
2022-10-07T22:33:23.699Z,12.40
2022-10-07T22:43:26.967Z,12.30
2022-10-07T22:53:28.900Z,12.20
2022-10-07T23:03:32.455Z,12.20
2022-10-07T23:13:35.778Z,12.10
2022-10-07T23:23:41.131Z,12.00
2022-10-07T23:33:43.032Z,12.00
2022-10-07T23:43:47.727Z,11.90
2022-10-07T23:53:50.550Z,11.80
